Time;durP1;ratioP1;P1;durP2;ratioP2;P2;SDS_P1;SDS_P2;PMS_P1;PMS_P2;Temp;Humidity;BMP_temperature;BMP_pressure;BME280_temperature;BME280_humidity;BME280_pressure;Samples;Min_cycle;Max_cycle;Signal;HPM_P1;HPM_P2
2021/06/22 00:01:58;;;;;;;8.70;2.50;;;;;;;23.83;49.40;100461.70;1775150;80;21521;-69
2021/06/22 00:04:25;;;;;;;7.53;2.52;;;;;;;23.80;49.10;100469.59;1775225;80;20927;-70
2021/06/22 00:06:54;;;;;;;8.13;2.62;;;;;;;23.76;48.74;100467.77;1775254;80;21386;-70
2021/06/22 00:09:21;;;;;;;10.15;2.37;;;;;;;23.75;49.08;100466.64;1775179;80;21042;-70
2021/06/22 00:11:47;;;;;;;13.25;3.02;;;;;;;23.73;49.04;100461.94;1775106;80;21946;-69
2021/06/22 00:14:16;;;;;;;11.40;2.87;;;;;;;23.71;49.34;100462.11;1775152;80;20984;-70
2021/06/22 00:16:43;;;;;;;16.70;3.42;;;;;;;23.70;49.22;100468.97;1775323;80;21429;-71
2021/06/22 00:19:12;;;;;;;14.80;3.40;;;;;;;23.67;49.40;100472.85;1775116;80;20889;-72
2021/06/22 00:21:40;;;;;;;9.88;2.95;;;;;;;23.65;49.42;100468.19;1775009;80;20920;-70
2021/06/22 00:24:08;;;;;;;12.10;4.50;;;;;;;23.63;49.80;100456.81;1775306;80;21151;-70
2021/06/22 00:26:35;;;;;;;18.45;7.95;;;;;;;23.61;50.14;100466.05;1775082;80;21327;-71
2021/06/22 00:29:02;;;;;;;20.43;7.53;;;;;;;23.57;49.48;100466.42;1775185;80;20922;-73
2021/06/22 00:31:30;;;;;;;28.32;10.03;;;;;;;23.55;49.76;100474.31;1775224;80;20925;-70
2021/06/22 00:33:57;;;;;;;20.65;10.80;;;;;;;23.54;49.61;100473.97;1775352;80;21505;-70
2021/06/22 00:36:25;;;;;;;21.95;9.53;;;;;;;23.51;49.65;100473.83;1775240;80;20917;-70
2021/06/22 00:38:52;;;;;;;25.05;7.37;;;;;;;23.49;49.83;100482.55;1779692;80;21378;-70
2021/06/22 00:41:21;;;;;;;16.15;7.47;;;;;;;23.48;49.41;100476.88;1783192;80;20997;-69
2021/06/22 00:43:48;;;;;;;19.45;8.10;;;;;;;23.47;49.89;100465.00;1783363;80;20873;-69
2021/06/22 00:46:15;;;;;;;15.18;5.87;;;;;;;23.47;50.17;100471.70;1783649;80;20970;-70
2021/06/22 00:48:42;;;;;;;21.00;7.25;;;;;;;23.46;50.84;100474.89;1783505;80;21400;-70
2021/06/22 00:51:09;;;;;;;18.82;6.87;;;;;;;23.45;51.09;100479.89;1783591;80;20849;-69
2021/06/22 00:53:36;;;;;;;16.62;7.25;;;;;;;23.44;51.03;100485.45;1783725;80;20955;-69
2021/06/22 00:56:03;;;;;;;13.28;5.55;;;;;;;23.42;51.07;100478.93;1783193;80;21212;-70
2021/06/22 00:58:32;;;;;;;16.10;5.37;;;;;;;23.42;50.65;100475.42;1781797;80;20880;-71
2021/06/22 01:01:00;;;;;;;16.35;4.75;;;;;;;23.41;51.57;100469.73;1783575;80;21128;-71
2021/06/22 01:03:27;;;;;;;14.03;3.47;;;;;;;23.40;51.79;100475.59;1783417;80;20956;-69
2021/06/22 01:05:56;;;;;;;14.70;3.90;;;;;;;23.37;51.22;100496.86;1783118;80;21488;-70
2021/06/22 01:08:23;;;;;;;17.62;3.47;;;;;;;23.36;50.59;100498.37;1783485;80;20885;-69
2021/06/22 01:10:51;;;;;;;10.65;3.70;;;;;;;23.35;51.14;100489.52;1783534;80;20888;-69
2021/06/22 01:13:17;;;;;;;13.95;3.72;;;;;;;23.35;51.71;100482.83;1783585;80;21766;-69
2021/06/22 01:15:44;;;;;;;17.70;3.25;;;;;;;23.33;51.64;100479.50;1783459;80;20900;-70
2021/06/22 01:18:11;;;;;;;16.12;4.30;;;;;;;23.31;51.62;100486.87;1783406;80;21394;-70
2021/06/22 01:20:46;;;;;;;12.20;3.62;;;;;;;23.30;51.92;100481.69;1765011;80;20928;-69
2021/06/22 01:23:14;;;;;;;17.35;5.40;;;;;;;23.28;51.52;100481.89;1783800;80;21472;-69
2021/06/22 01:25:41;;;;;;;21.93;6.53;;;;;;;23.26;51.26;100467.02;1783453;80;21125;-70
2021/06/22 01:28:08;;;;;;;17.92;6.70;;;;;;;23.24;51.62;100480.57;1783352;80;20928;-70
2021/06/22 01:30:37;;;;;;;19.10;7.17;;;;;;;23.22;52.25;100476.41;1783307;80;21322;-69
2021/06/22 01:33:05;;;;;;;22.50;6.42;;;;;;;23.20;51.88;100479.77;1783771;80;20892;-69
2021/06/22 01:35:33;;;;;;;19.17;6.40;;;;;;;23.17;52.05;100476.95;1783572;80;20884;-70
2021/06/22 01:38:08;;;;;;;18.60;6.87;;;;;;;23.16;52.89;100457.87;1782851;80;21109;-69
2021/06/22 01:40:48;;;;;;;21.65;7.08;;;;;;;23.12;52.91;100446.72;1774948;80;20928;-69
2021/06/22 01:43:18;;;;;;;20.17;5.78;;;;;;;23.10;52.51;100439.38;1775185;80;20920;-71
2021/06/22 01:45:46;;;;;;;20.12;4.97;;;;;;;23.08;52.53;100444.58;1778863;80;21521;-70
2021/06/22 01:48:14;;;;;;;21.07;4.70;;;;;;;23.08;52.71;100429.87;1775293;80;20865;-70
2021/06/22 01:53:27;;;;;;;15.43;4.05;;;;;;;23.08;53.25;100440.06;1797748;79;22584;-71
2021/06/22 01:55:56;;;;;;;18.80;4.40;;;;;;;23.02;53.48;100431.40;1694617;84;20923;-71
2021/06/22 01:58:23;;;;;;;24.40;4.67;;;;;;;23.03;53.66;100417.00;1695938;84;21171;-71
2021/06/22 02:00:59;;;;;;;22.87;4.30;;;;;;;23.01;53.47;100424.40;1695975;83;20987;-72
2021/06/22 02:03:28;;;;;;;13.65;4.70;;;;;;;23.01;53.53;100410.17;1695225;83;20931;-69
2021/06/22 02:05:55;;;;;;;22.15;4.80;;;;;;;23.00;53.89;100397.31;1695914;84;20880;-71
2021/06/22 02:08:23;;;;;;;19.35;4.37;;;;;;;22.99;53.67;100394.30;1695972;84;20891;-71
2021/06/22 02:10:50;;;;;;;21.85;5.42;;;;;;;22.97;53.45;100386.44;1695760;83;21195;-70
2021/06/22 02:13:35;;;;;;;24.10;5.78;;;;;;;22.97;53.64;100405.67;1695569;83;20927;-71
2021/06/22 02:16:13;;;;;;;25.37;5.50;;;;;;;22.96;53.07;100437.42;1695425;84;20958;-70
2021/06/22 02:18:40;;;;;;;29.82;6.12;;;;;;;22.93;53.03;100457.84;1695844;84;21468;-72
2021/06/22 02:21:07;;;;;;;35.17;6.72;;;;;;;22.92;52.66;100438.78;1695895;84;20943;-70
2021/06/22 02:23:35;;;;;;;37.63;6.20;;;;;;;22.90;52.25;100447.00;1695792;84;21192;-69
2021/06/22 02:26:04;;;;;;;29.77;6.30;;;;;;;22.91;52.05;100497.30;1695751;84;20895;-70
2021/06/22 02:28:31;;;;;;;32.78;8.03;;;;;;;22.90;52.06;100496.48;1695821;83;20934;-71
2021/06/22 02:30:58;;;;;;;36.03;8.50;;;;;;;22.92;52.17;100482.91;1695688;83;20903;-69
2021/06/22 02:33:25;;;;;;;31.62;8.68;;;;;;;22.93;52.15;100481.91;1695890;83;20978;-70
2021/06/22 02:35:54;;;;;;;31.37;7.70;;;;;;;22.93;52.24;100485.92;1695739;84;21173;-71
2021/06/22 02:38:21;;;;;;;50.20;8.93;;;;;;;22.93;52.14;100489.42;1667872;84;20851;-71
2021/06/22 02:40:50;;;;;;;47.43;8.88;;;;;;;22.95;51.21;100488.75;1695835;84;20894;-72
2021/06/22 02:43:19;;;;;;;55.00;10.63;;;;;;;22.97;50.95;100485.91;1695653;84;20982;-70
2021/06/22 02:45:47;;;;;;;49.40;7.33;;;;;;;23.02;50.48;100481.39;1725120;82;20892;-71
2021/06/22 02:48:16;;;;;;;45.63;8.38;;;;;;;23.07;51.01;100484.36;1710894;83;21831;-70
2021/06/22 02:50:44;;;;;;;57.40;9.33;;;;;;;23.11;51.13;100486.50;1695607;83;20973;-72
2021/06/22 02:53:12;;;;;;;67.55;9.13;;;;;;;23.16;49.98;100492.66;1684119;84;21389;-70
2021/06/22 02:55:40;;;;;;;69.15;10.35;;;;;;;23.20;49.42;100493.97;1745115;80;20926;-69
2021/06/22 02:58:07;;;;;;;66.67;11.85;;;;;;;23.25;49.46;100484.90;1745306;81;20979;-73
2021/06/22 03:00:36;;;;;;;67.95;12.98;;;;;;;23.29;48.95;100492.90;1745183;81;21155;-71
2021/06/22 03:03:05;;;;;;;63.52;13.78;;;;;;;23.34;48.79;100491.02;1744864;81;20941;-72
2021/06/22 03:05:34;;;;;;;69.00;14.43;;;;;;;23.38;48.78;100500.37;1744591;81;20913;-72
2021/06/22 03:08:01;;;;;;;74.47;16.70;;;;;;;23.41;48.75;100505.38;1744644;81;20893;-72
2021/06/22 03:10:28;;;;;;;71.70;16.32;;;;;;;23.43;48.46;100504.67;1744774;82;20887;-73
2021/06/22 03:12:56;;;;;;;61.65;13.10;;;;;;;23.44;48.75;100502.33;1744570;81;21118;-73
2021/06/22 03:15:26;;;;;;;64.97;14.68;;;;;;;23.47;48.85;100506.50;1744666;81;20932;-71
2021/06/22 03:17:54;;;;;;;63.95;14.98;;;;;;;23.47;49.06;100507.31;1744613;81;20818;-72
2021/06/22 03:20:22;;;;;;;54.75;13.03;;;;;;;23.48;49.42;100504.16;1744479;81;20869;-70
2021/06/22 03:22:49;;;;;;;46.10;11.63;;;;;;;23.47;48.79;100508.66;1744769;82;20980;-70
2021/06/22 03:25:16;;;;;;;64.90;12.20;;;;;;;23.47;49.15;100509.17;1744602;82;21141;-71
2021/06/22 03:27:44;;;;;;;69.62;11.88;;;;;;;23.48;48.83;100520.22;1744025;81;20952;-71
2021/06/22 03:30:21;;;;;;;71.33;11.97;;;;;;;23.49;49.07;100517.86;1690689;81;20853;-70
2021/06/22 03:32:48;;;;;;;62.70;11.65;;;;;;;23.50;49.22;100508.80;1744605;82;21374;-72
2021/06/22 03:35:15;;;;;;;68.17;12.60;;;;;;;23.50;48.94;100515.01;1744572;81;20991;-71
2021/06/22 03:37:42;;;;;;;52.62;13.35;;;;;;;23.52;49.73;100514.81;1744705;81;21120;-71
2021/06/22 03:40:13;;;;;;;60.10;13.72;;;;;;;23.53;49.22;100510.63;1744503;82;20964;-71
2021/06/22 03:42:41;;;;;;;66.75;17.07;;;;;;;23.55;49.64;100513.95;1744872;81;20943;-71
2021/06/22 03:45:10;;;;;;;67.25;15.55;;;;;;;23.59;50.08;100519.80;1691702;82;20904;-72
2021/06/22 03:47:39;;;;;;;58.42;14.63;;;;;;;23.62;49.53;100526.63;1744888;81;20913;-71
2021/06/22 03:50:09;;;;;;;65.52;13.50;;;;;;;23.67;49.80;100537.63;1744690;82;21807;-71
2021/06/22 03:52:36;;;;;;;74.77;11.53;;;;;;;23.70;50.10;100523.87;1744586;80;20937;-72
2021/06/22 03:57:54;;;;;;;50.90;11.50;;;;;;;23.77;49.91;100535.58;1744607;81;20857;-70
2021/06/22 04:00:23;;;;;;;65.42;14.35;;;;;;;23.82;50.04;100538.53;1744018;81;20921;-73
2021/06/22 04:02:52;;;;;;;60.38;12.25;;;;;;;23.86;50.20;100556.43;1744829;81;21077;-71
2021/06/22 04:05:19;;;;;;;45.75;11.57;;;;;;;23.86;50.57;100553.23;1733997;81;20850;-71
2021/06/22 04:07:48;;;;;;;56.60;12.60;;;;;;;23.87;50.79;100550.05;1744351;81;20949;-71
2021/06/22 04:10:15;;;;;;;65.37;13.70;;;;;;;23.89;51.10;100548.02;1744514;81;20936;-71
2021/06/22 04:12:44;;;;;;;58.17;14.28;;;;;;;23.93;50.07;100548.81;1744815;81;21023;-71
2021/06/22 04:15:12;;;;;;;63.02;13.08;;;;;;;23.96;49.10;100548.44;1744504;82;21347;-71
2021/06/22 04:17:39;;;;;;;66.45;14.05;;;;;;;24.01;48.45;100549.23;1744815;82;20893;-71
2021/06/22 04:20:09;;;;;;;69.87;15.38;;;;;;;24.04;48.47;100550.74;1744756;81;20877;-72
2021/06/22 04:22:36;;;;;;;67.32;18.02;;;;;;;24.09;48.31;100552.36;1744889;81;20957;-73
2021/06/22 04:25:11;;;;;;;62.83;16.65;;;;;;;24.14;47.86;100556.66;1744511;81;22539;-72
2021/06/22 04:27:39;;;;;;;67.15;12.88;;;;;;;24.18;47.99;100554.77;1744583;81;21095;-70
2021/06/22 04:30:08;;;;;;;56.58;14.58;;;;;;;24.26;48.19;100558.41;1744500;81;21457;-72
2021/06/22 04:32:37;;;;;;;60.65;12.80;;;;;;;24.35;47.67;100573.38;1744622;81;21331;-73
2021/06/22 04:35:05;;;;;;;61.92;10.60;;;;;;;24.38;47.49;100565.78;1744495;80;20980;-70
2021/06/22 04:37:32;;;;;;;65.25;12.07;;;;;;;24.47;47.62;100569.21;1745046;81;20932;-72
2021/06/22 04:39:59;;;;;;;65.83;11.12;;;;;;;24.58;47.23;100566.10;1744624;81;21544;-72
2021/06/22 04:42:26;;;;;;;59.33;11.85;;;;;;;24.71;46.35;100573.50;1744627;81;20996;-70
2021/06/22 04:44:53;;;;;;;57.50;11.43;;;;;;;24.80;46.34;100563.51;1744802;81;21421;-72
2021/06/22 04:47:20;;;;;;;63.05;13.05;;;;;;;24.91;46.06;100572.42;1744516;81;20909;-72
2021/06/22 04:49:47;;;;;;;67.92;12.23;;;;;;;25.05;45.77;100577.95;1744946;81;20940;-72
2021/06/22 04:52:14;;;;;;;58.15;10.93;;;;;;;25.17;45.83;100566.55;1744502;80;21104;-71
2021/06/22 04:54:41;;;;;;;59.33;10.18;;;;;;;25.30;45.50;100570.41;1744634;81;20862;-71
2021/06/22 04:57:09;;;;;;;52.83;10.10;;;;;;;25.39;46.06;100571.47;1744590;81;20932;-72
2021/06/22 04:59:36;;;;;;;58.33;12.00;;;;;;;25.44;45.68;100568.20;1744554;81;20913;-71
2021/06/22 05:02:03;;;;;;;66.33;15.10;;;;;;;25.47;45.18;100569.67;1744666;81;20841;-72
2021/06/22 05:04:31;;;;;;;62.45;10.88;;;;;;;25.50;44.92;100578.68;1744550;80;21154;-72
2021/06/22 05:06:58;;;;;;;70.32;15.35;;;;;;;25.56;44.46;100581.95;1744526;82;20889;-71
2021/06/22 05:09:26;;;;;;;82.37;18.65;;;;;;;25.62;44.82;100588.73;1744638;82;20976;-72
2021/06/22 05:11:53;;;;;;;66.25;16.30;;;;;;;25.72;44.40;100585.72;1744467;81;20919;-72
2021/06/22 05:14:20;;;;;;;68.75;16.45;;;;;;;25.84;44.77;100583.36;1744707;81;20873;-71
2021/06/22 05:16:49;;;;;;;55.63;14.87;;;;;;;26.07;44.40;100582.34;1744590;81;21177;-71
2021/06/22 05:19:17;;;;;;;61.20;14.38;;;;;;;26.26;44.30;100587.05;1744604;81;21035;-73
2021/06/22 05:21:45;;;;;;;76.12;16.65;;;;;;;26.49;45.39;100582.73;1744638;81;21437;-73
2021/06/22 05:24:12;;;;;;;83.82;18.57;;;;;;;26.72;42.61;100587.03;1744503;81;20976;-71
2021/06/22 05:26:39;;;;;;;70.97;18.73;;;;;;;26.90;42.39;100590.53;1744536;81;21473;-72
2021/06/22 05:29:06;;;;;;;72.30;18.98;;;;;;;27.09;42.84;100587.92;1744633;81;21125;-70
2021/06/22 05:31:35;;;;;;;65.50;16.65;;;;;;;27.32;42.91;100583.27;1744559;82;21418;-70
2021/06/22 05:34:01;;;;;;;64.35;16.77;;;;;;;27.55;42.21;100591.83;1734311;82;21398;-71
2021/06/22 05:36:28;;;;;;;68.90;13.15;;;;;;;27.74;41.25;100590.17;1744653;81;21354;-71
2021/06/22 05:38:55;;;;;;;55.52;14.35;;;;;;;27.90;41.10;100583.09;1744668;81;21015;-71
2021/06/22 05:41:22;;;;;;;67.45;14.45;;;;;;;28.12;42.41;100584.20;1744720;80;21121;-70
2021/06/22 05:43:49;;;;;;;80.45;16.17;;;;;;;28.28;40.72;100587.84;1744479;81;20885;-71
2021/06/22 05:46:15;;;;;;;74.07;16.40;;;;;;;28.45;39.74;100595.47;1744744;81;20921;-73
2021/06/22 05:48:43;;;;;;;77.40;19.75;;;;;;;28.57;39.06;100599.73;1744551;81;20949;-78
2021/06/22 05:51:10;;;;;;;78.92;19.12;;;;;;;28.69;38.80;100603.45;1744966;82;20865;-78
2021/06/22 05:53:37;;;;;;;69.87;15.08;;;;;;;28.85;38.44;100599.45;1744713;80;21502;-78
2021/06/22 05:56:04;;;;;;;74.27;18.15;;;;;;;29.00;37.85;100603.25;1744942;81;20876;-79
2021/06/22 05:58:31;;;;;;;64.60;13.78;;;;;;;29.08;37.54;100599.81;1744652;81;20885;-78
2021/06/22 06:00:58;;;;;;;71.50;16.05;;;;;;;29.19;37.01;100594.23;1744593;81;20909;-77
2021/06/22 06:03:26;;;;;;;83.22;14.70;;;;;;;29.32;37.75;100591.99;1744746;80;21382;-78
2021/06/22 06:05:53;;;;;;;56.63;12.50;;;;;;;29.47;37.41;100608.73;1744716;80;21128;-79
2021/06/22 06:08:20;;;;;;;70.50;13.22;;;;;;;29.63;37.05;100605.22;1744681;81;20921;-78
2021/06/22 06:10:47;;;;;;;66.53;16.50;;;;;;;29.77;37.25;100611.38;1744709;82;20929;-78
2021/06/22 06:13:14;;;;;;;86.05;17.25;;;;;;;29.93;36.94;100613.03;1744568;81;20940;-79
2021/06/22 06:15:40;;;;;;;69.05;13.50;;;;;;;30.08;36.07;100604.60;1745037;80;21363;-79
2021/06/22 06:18:08;;;;;;;72.58;15.10;;;;;;;30.26;37.02;100620.55;1745108;81;20964;-78
2021/06/22 06:20:35;;;;;;;55.03;12.60;;;;;;;30.45;35.19;100600.63;1744901;81;21031;-79
2021/06/22 06:23:02;;;;;;;63.78;13.58;;;;;;;30.59;35.24;100602.66;1744762;81;20873;-80
2021/06/22 06:25:29;;;;;;;83.62;15.43;;;;;;;30.67;34.84;100605.08;1744650;81;20940;-79
2021/06/22 06:27:59;;;;;;;81.90;14.15;;;;;;;30.77;34.61;100608.10;1745156;82;21035;-81
2021/06/22 06:30:28;;;;;;;67.27;12.40;;;;;;;30.92;35.51;100592.83;1745111;81;21158;-79
2021/06/22 06:32:57;;;;;;;78.35;14.40;;;;;;;31.14;35.54;100597.78;1744877;81;21063;-79
2021/06/22 06:35:24;;;;;;;66.17;14.23;;;;;;;31.40;34.75;100596.05;1746685;81;20909;-78
2021/06/22 06:37:51;;;;;;;71.45;18.55;;;;;;;31.60;35.23;100599.86;1746498;82;20889;-78
2021/06/22 06:40:20;;;;;;;78.20;15.93;;;;;;;31.76;34.09;100600.25;1745054;81;20925;-77
2021/06/22 06:42:47;;;;;;;78.37;15.23;;;;;;;31.85;33.24;100591.25;1744771;81;21133;-78
2021/06/22 06:45:16;;;;;;;79.17;15.32;;;;;;;31.93;33.57;100591.73;1744716;82;20885;-78
2021/06/22 06:47:44;;;;;;;77.62;14.53;;;;;;;32.05;32.65;100602.62;1744905;80;20972;-79
2021/06/22 06:50:11;;;;;;;88.95;19.35;;;;;;;32.19;32.93;100595.06;1744610;82;20881;-77
2021/06/22 06:52:38;;;;;;;76.15;18.20;;;;;;;32.37;33.59;100603.62;1744597;81;20972;-79
2021/06/22 06:55:25;;;;;;;80.30;15.85;;;;;;;32.39;31.36;100594.20;1744709;82;21773;-79
2021/06/22 06:57:35;;;;;;;67.08;14.75;;;;;;;32.29;31.99;100599.39;1743551;81;21457;-79
2021/06/22 07:00:02;;;;;;;72.85;16.85;;;;;;;32.24;32.62;100588.42;1744681;81;20889;-74
2021/06/22 07:02:29;;;;;;;72.08;16.40;;;;;;;32.28;32.72;100597.72;1744826;82;20889;-76
2021/06/22 07:04:56;;;;;;;75.05;15.65;;;;;;;32.39;33.56;100595.55;1734304;82;21458;-76
2021/06/22 07:07:23;;;;;;;76.15;14.70;;;;;;;32.56;32.81;100595.67;1744538;81;21120;-78
2021/06/22 07:09:51;;;;;;;70.17;16.23;;;;;;;32.76;32.44;100601.25;1744634;81;20889;-77
2021/06/22 07:12:17;;;;;;;66.90;15.80;;;;;;;32.99;32.48;100611.22;1744798;81;21035;-71
2021/06/22 07:14:44;;;;;;;71.25;16.17;;;;;;;33.10;31.35;100606.84;1744851;81;20913;-72
2021/06/22 07:17:11;;;;;;;78.87;14.93;;;;;;;33.21;31.56;100605.44;1744865;82;20980;-71
2021/06/22 07:19:40;;;;;;;74.65;13.43;;;;;;;33.35;31.85;100601.06;1744670;81;21777;-71
2021/06/22 07:22:06;;;;;;;76.50;14.85;;;;;;;33.56;32.81;100604.98;1744963;81;20924;-71
2021/06/22 07:24:33;;;;;;;89.95;15.28;;;;;;;33.76;31.02;100592.30;1744764;80;20845;-74
2021/06/22 07:27:02;;;;;;;86.80;17.55;;;;;;;33.93;31.92;100597.22;1744360;81;20905;-75
2021/06/22 07:29:31;;;;;;;72.82;20.08;;;;;;;34.08;30.73;100599.87;1744421;81;20957;-75
2021/06/22 07:32:00;;;;;;;87.70;25.00;;;;;;;34.17;30.59;100595.14;1744294;81;20877;-76
2021/06/22 07:34:28;;;;;;;76.45;18.52;;;;;;;34.27;29.91;100599.93;1744773;80;20937;-77
2021/06/22 07:36:54;;;;;;;83.25;16.00;;;;;;;34.34;30.73;100607.92;1744862;81;21450;-76
2021/06/22 07:39:21;;;;;;;75.47;14.30;;;;;;;34.47;30.43;100601.57;1744500;81;20938;-76
2021/06/22 07:41:48;;;;;;;63.28;15.05;;;;;;;34.66;30.15;100598.56;1744982;81;20957;-75
2021/06/22 07:44:15;;;;;;;70.60;14.10;;;;;;;34.83;29.77;100601.24;1744617;82;21146;-76
2021/06/22 07:46:43;;;;;;;64.97;12.45;;;;;;;34.95;29.83;100602.47;1744490;82;20881;-77
2021/06/22 07:49:10;;;;;;;68.05;13.13;;;;;;;35.02;29.24;100599.03;1744321;82;20881;-76
2021/06/22 07:51:38;;;;;;;66.05;13.05;;;;;;;35.17;29.27;100607.92;1744640;81;20941;-76
2021/06/22 07:54:05;;;;;;;62.40;14.53;;;;;;;35.28;28.46;100604.22;1744571;80;21004;-77
2021/06/22 07:56:32;;;;;;;74.12;13.88;;;;;;;35.33;28.86;100599.36;1744746;81;21104;-75
2021/06/22 07:58:59;;;;;;;60.35;11.65;;;;;;;35.40;27.81;100608.18;1744606;81;20885;-76
2021/06/22 08:01:27;;;;;;;66.12;13.43;;;;;;;35.46;28.00;100610.70;1744522;81;21410;-76
2021/06/22 08:03:53;;;;;;;70.65;13.45;;;;;;;35.53;28.16;100602.83;1744754;80;20901;-75
2021/06/22 08:06:20;;;;;;;61.35;11.57;;;;;;;35.64;28.69;100603.23;1744763;81;21351;-75
2021/06/22 08:08:47;;;;;;;48.65;10.75;;;;;;;35.79;28.76;100599.81;1744624;82;21144;-75
2021/06/22 08:11:14;;;;;;;61.58;14.13;;;;;;;35.99;28.34;100604.61;1744417;81;20893;-72
2021/06/22 08:13:41;;;;;;;49.95;11.00;;;;;;;36.13;27.32;100604.48;1744514;81;20909;-74
2021/06/22 08:16:08;;;;;;;51.55;11.78;;;;;;;36.20;26.17;100609.16;1744576;81;20932;-75
2021/06/22 08:18:35;;;;;;;62.45;12.03;;;;;;;36.22;26.92;100607.00;1744528;81;20940;-74
2021/06/22 08:21:03;;;;;;;47.55;11.68;;;;;;;36.28;26.54;100611.38;1744571;81;21152;-74
2021/06/22 08:23:30;;;;;;;46.40;9.53;;;;;;;36.31;25.70;100605.96;1744794;81;20924;-75
2021/06/22 08:25:57;;;;;;;42.50;8.73;;;;;;;36.26;26.00;100614.10;1744610;81;20941;-75
2021/06/22 08:28:24;;;;;;;53.48;10.80;;;;;;;36.29;26.45;100614.41;1744734;80;21314;-72
2021/06/22 08:30:50;;;;;;;50.35;10.30;;;;;;;36.37;25.58;100616.36;1744608;80;20928;-73
2021/06/22 08:33:17;;;;;;;34.43;9.55;;;;;;;36.31;25.46;100617.70;1744872;81;21900;-75
2021/06/22 08:35:44;;;;;;;38.42;9.40;;;;;;;36.20;25.70;100615.99;1744542;81;20988;-76
2021/06/22 08:38:13;;;;;;;38.90;9.50;;;;;;;36.22;27.37;100617.92;1744798;81;20878;-73
2021/06/22 08:40:43;;;;;;;49.38;9.20;;;;;;;36.37;26.90;100611.71;1744486;81;20932;-77
2021/06/22 08:43:11;;;;;;;34.00;7.20;;;;;;;36.44;24.53;100616.42;1744761;80;20988;-76
2021/06/22 08:45:39;;;;;;;32.88;8.40;;;;;;;36.37;25.47;100621.27;1744544;81;21852;-77
2021/06/22 08:48:09;;;;;;;32.83;7.55;;;;;;;36.37;26.04;100625.92;1750661;80;20927;-74
2021/06/22 08:50:38;;;;;;;36.25;7.47;;;;;;;36.42;25.80;100628.67;1781014;80;20883;-74
2021/06/22 08:53:05;;;;;;;42.17;7.70;;;;;;;36.44;26.10;100629.23;1780634;80;20927;-75
2021/06/22 08:55:33;;;;;;;25.82;7.12;;;;;;;36.49;25.46;100637.48;1785789;79;20864;-76
2021/06/22 08:58:04;;;;;;;31.42;6.85;;;;;;;36.52;26.64;100636.39;1786610;80;21130;-74
2021/06/22 09:00:40;;;;;;;29.63;7.10;;;;;;;36.62;27.86;100635.67;1786470;80;20911;-75
2021/06/22 09:03:18;;;;;;;29.55;5.22;;;;;;;36.80;27.50;100638.48;1786509;80;20916;-74
2021/06/22 09:05:47;;;;;;;30.57;6.50;;;;;;;37.01;26.24;100631.72;1786705;79;20955;-75
2021/06/22 09:08:30;;;;;;;30.50;5.42;;;;;;;37.17;26.78;100629.87;1786551;79;20970;-74
2021/06/22 09:11:09;;;;;;;23.32;4.28;;;;;;;37.30;25.56;100628.00;1786991;80;21821;-76
2021/06/22 09:13:37;;;;;;;27.05;5.70;;;;;;;37.32;24.74;100621.71;1786412;80;20900;-76
2021/06/22 09:16:08;;;;;;;21.90;5.00;;;;;;;37.26;23.65;100626.89;1786845;80;21357;-75
2021/06/22 09:18:40;;;;;;;22.90;4.78;;;;;;;37.19;24.27;100623.05;1735729;80;21275;-73
2021/06/22 09:21:24;;;;;;;21.82;4.35;;;;;;;37.16;25.43;100627.70;1786773;79;20951;-75
2021/06/22 09:23:52;;;;;;;19.17;4.70;;;;;;;37.14;23.82;100627.14;1786664;79;21145;-76
2021/06/22 09:26:22;;;;;;;27.87;5.53;;;;;;;37.17;24.91;100621.13;1786718;80;21389;-74
2021/06/22 09:28:50;;;;;;;19.70;6.62;;;;;;;37.21;23.89;100628.25;1786478;79;20959;-76
2021/06/22 09:31:22;;;;;;;31.93;5.90;;;;;;;37.23;23.62;100626.89;1786754;80;20931;-75
2021/06/22 09:33:54;;;;;;;23.32;5.50;;;;;;;37.24;23.66;100635.91;1786602;80;20994;-75
2021/06/22 09:36:27;;;;;;;24.90;6.73;;;;;;;37.24;24.08;100635.91;1787044;79;21119;-75
2021/06/22 09:39:06;;;;;;;17.95;4.33;;;;;;;37.21;23.55;100634.54;1785878;80;20900;-74
2021/06/22 09:41:40;;;;;;;28.12;5.83;;;;;;;37.18;24.57;100638.38;1786735;80;20931;-75
2021/06/22 09:44:10;;;;;;;20.25;4.30;;;;;;;37.24;23.86;100645.48;1786435;79;20872;-74
2021/06/22 09:46:45;;;;;;;24.20;5.60;;;;;;;37.25;23.47;100649.33;1786798;79;20986;-73
2021/06/22 09:49:22;;;;;;;26.30;5.30;;;;;;;37.18;23.01;100652.87;1786578;80;21160;-74
2021/06/22 09:51:55;;;;;;;14.30;3.90;;;;;;;37.07;23.10;100647.06;1786437;79;20907;-71
2021/06/22 09:54:28;;;;;;;21.82;4.40;;;;;;;36.91;23.00;100657.94;1784989;80;20931;-73
2021/06/22 09:57:01;;;;;;;23.40;5.42;;;;;;;36.79;23.89;100653.77;1780740;79;20958;-76
2021/06/22 09:59:32;;;;;;;15.05;4.25;;;;;;;36.72;23.53;100665.77;1780750;80;20907;-74
2021/06/22 10:02:09;;;;;;;13.78;3.02;;;;;;;36.72;23.04;100649.36;1777217;79;21135;-72
2021/06/22 10:04:38;;;;;;;13.60;2.62;;;;;;;36.77;22.00;100655.39;1780541;80;20975;-73
2021/06/22 10:07:09;;;;;;;12.18;3.40;;;;;;;36.78;21.71;100657.61;1750465;80;21337;-73
2021/06/22 10:09:37;;;;;;;10.00;2.20;;;;;;;36.86;21.92;100641.48;1780817;80;21353;-73
2021/06/22 10:12:14;;;;;;;23.67;4.20;;;;;;;36.99;21.34;100635.27;1780807;80;20868;-74
2021/06/22 10:14:45;;;;;;;15.10;2.90;;;;;;;37.00;21.82;100635.01;1780778;80;21853;-73
2021/06/22 10:17:21;;;;;;;10.58;2.72;;;;;;;37.07;21.86;100633.39;1780919;80;20895;-75
2021/06/22 10:19:50;;;;;;;15.85;3.17;;;;;;;37.22;22.19;100639.45;1781099;79;20860;-71
2021/06/22 10:22:18;;;;;;;12.28;2.52;;;;;;;37.29;21.46;100635.94;1780828;80;21524;-72
2021/06/22 10:24:46;;;;;;;13.00;2.70;;;;;;;37.34;21.38;100632.66;1781078;79;20931;-71
2021/06/22 10:27:17;;;;;;;13.05;2.87;;;;;;;37.38;21.80;100639.79;1781237;80;21138;-70
2021/06/22 10:29:50;;;;;;;17.00;2.80;;;;;;;37.34;21.83;100638.68;1780786;80;20895;-71
2021/06/22 10:32:16;;;;;;;13.28;2.58;;;;;;;37.30;22.06;100626.08;1780941;79;20966;-73
2021/06/22 10:34:47;;;;;;;10.48;2.20;;;;;;;37.33;22.42;100621.45;1780863;79;21356;-74
2021/06/22 10:37:39;;;;;;;13.10;3.17;;;;;;;37.41;22.61;100623.37;1780401;79;20836;-71
2021/06/22 10:40:16;;;;;;;13.03;3.30;;;;;;;37.47;22.21;100631.31;1780886;79;21036;-70
2021/06/22 10:42:51;;;;;;;13.32;3.02;;;;;;;37.41;21.67;100617.91;1780855;79;21022;-70
2021/06/22 10:45:18;;;;;;;9.38;2.33;;;;;;;37.34;22.26;100616.24;1780749;80;20963;-71
2021/06/22 10:47:45;;;;;;;14.68;3.62;;;;;;;37.34;22.70;100614.06;1780866;80;20875;-69
2021/06/22 10:50:26;;;;;;;21.62;3.15;;;;;;;37.29;22.01;100618.98;1781162;80;20919;-70
2021/06/22 10:53:01;;;;;;;15.65;2.80;;;;;;;37.19;21.89;100623.59;1780763;80;21388;-73
2021/06/22 10:55:41;;;;;;;12.93;3.17;;;;;;;37.01;22.62;100620.23;1784069;80;20931;-71
2021/06/22 10:58:08;;;;;;;8.50;2.25;;;;;;;36.98;22.43;100619.97;1784765;79;21369;-72
2021/06/22 11:00:49;;;;;;;16.42;2.50;;;;;;;36.99;22.74;100623.78;1786659;80;20951;-69
2021/06/22 11:03:31;;;;;;;18.17;2.22;;;;;;;37.00;22.64;100616.39;1786873;80;21400;-70
2021/06/22 11:06:14;;;;;;;11.30;2.87;;;;;;;36.88;21.91;100620.73;1786728;79;20936;-68
2021/06/22 11:08:43;;;;;;;10.93;2.75;;;;;;;36.78;22.28;100628.91;1786605;80;20990;-70
2021/06/22 11:11:15;;;;;;;8.75;2.45;;;;;;;36.62;22.33;100628.84;1786641;79;20908;-70
2021/06/22 11:13:57;;;;;;;8.35;1.92;;;;;;;36.49;22.55;100628.73;1786643;80;20860;-70
2021/06/22 11:16:27;;;;;;;9.88;1.85;;;;;;;36.32;22.57;100617.16;1786622;80;20867;-70
2021/06/22 11:19:09;;;;;;;10.78;2.15;;;;;;;36.20;22.83;100626.10;1786505;79;22008;-69
2021/06/22 11:21:51;;;;;;;11.00;3.08;;;;;;;36.11;23.26;100636.66;1786761;79;20958;-70
2021/06/22 11:24:27;;;;;;;10.35;2.22;;;;;;;35.99;23.77;100612.25;1786522;80;21510;-68
2021/06/22 11:26:59;;;;;;;9.75;2.35;;;;;;;35.90;23.54;100614.64;1786240;79;20892;-70
2021/06/22 11:29:41;;;;;;;6.70;1.75;;;;;;;35.78;23.81;100606.37;1786595;80;20892;-69